Time;durP1;ratioP1;P1;durP2;ratioP2;P2;SDS_P1;SDS_P2;PMS_P1;PMS_P2;Temp;Humidity;BMP_temperature;BMP_pressure;BME280_temperature;BME280_humidity;BME280_pressure;Samples;Min_cycle;Max_cycle;Signal;HPM_P1;HPM_P2
2023/10/29 00:00:04;;;;;;;3.17;1.37;;;;;;;;;;707041;27;1227;-63
2023/10/29 00:00:30;;;;;;;4.50;1.70;;;;;;;;;;704913;27;756;-64
2023/10/29 00:00:50;;;;;;;4.53;1.60;;;;;;;;;;701221;28;2612;-63
2023/10/29 00:01:10;;;;;;;4.93;1.60;;;;;;;;;;703283;28;4307;-63
2023/10/29 00:01:30;;;;;;;3.27;1.50;;;;;;;;;;702228;28;986;-66
2023/10/29 00:01:51;;;;;;;3.03;1.48;;;;;;;;;;701800;28;2770;-64
2023/10/29 00:02:11;;;;;;;3.53;1.47;;;;;;;;;;698703;28;1436;-62
2023/10/29 00:02:31;;;;;;;4.93;1.50;;;;;;;;;;699478;28;962;-64
2023/10/29 00:02:52;;;;;;;5.20;1.63;;;;;;;;;;702714;28;1758;-63
2023/10/29 00:03:12;;;;;;;4.63;1.60;;;;;;;;;;703837;28;812;-65
2023/10/29 00:03:32;;;;;;;3.43;1.50;;;;;;;;;;703262;28;2578;-63
2023/10/29 00:03:53;;;;;;;4.03;1.60;;;;;;;;;;703887;28;4327;-63
2023/10/29 00:04:13;;;;;;;3.67;1.63;;;;;;;;;;704091;28;891;-62
2023/10/29 00:04:35;;;;;;;4.30;1.73;;;;;;;;;;704081;27;1098;-63
2023/10/29 00:04:55;;;;;;;3.80;1.85;;;;;;;;;;705632;27;816;-63
2023/10/29 00:05:17;;;;;;;3.90;1.80;;;;;;;;;;703494;28;935;-63
2023/10/29 00:05:39;;;;;;;3.63;1.50;;;;;;;;;;701645;28;2345;-65
2023/10/29 00:05:59;;;;;;;3.30;1.53;;;;;;;;;;699529;28;1439;-63
2023/10/29 00:06:19;;;;;;;2.80;1.60;;;;;;;;;;699901;28;982;-64
2023/10/29 00:06:39;;;;;;;3.28;1.48;;;;;;;;;;699346;28;883;-62
2023/10/29 00:07:00;;;;;;;3.10;1.60;;;;;;;;;;701182;28;4487;-64
2023/10/29 00:07:20;;;;;;;3.43;1.70;;;;;;;;;;703020;28;780;-63
2023/10/29 00:07:40;;;;;;;4.18;1.65;;;;;;;;;;698263;28;2649;-63
2023/10/29 00:08:00;;;;;;;3.80;1.90;;;;;;;;;;702818;28;967;-62
2023/10/29 00:08:21;;;;;;;3.60;1.60;;;;;;;;;;702150;28;848;-64
2023/10/29 00:08:41;;;;;;;2.78;1.35;;;;;;;;;;701892;28;2182;-63
2023/10/29 00:09:01;;;;;;;3.57;1.70;;;;;;;;;;703395;28;887;-62
2023/10/29 00:09:22;;;;;;;4.03;1.70;;;;;;;;;;702945;28;879;-63
2023/10/29 00:09:42;;;;;;;3.65;1.60;;;;;;;;;;704357;27;2587;-64
2023/10/29 00:10:02;;;;;;;4.10;1.40;;;;;;;;;;704728;27;4467;-63
2023/10/29 00:10:23;;;;;;;3.60;1.40;;;;;;;;;;702770;28;839;-62
2023/10/29 00:10:43;;;;;;;4.00;1.60;;;;;;;;;;701603;28;2311;-64
2023/10/29 00:11:03;;;;;;;3.40;1.60;;;;;;;;;;702460;28;831;-63
2023/10/29 00:11:24;;;;;;;4.35;1.73;;;;;;;;;;702246;28;899;-64
2023/10/29 00:11:44;;;;;;;3.87;1.63;;;;;;;;;;701046;28;1885;-64
2023/10/29 00:12:04;;;;;;;4.83;1.60;;;;;;;;;;703232;28;1733;-64
2023/10/29 00:12:25;;;;;;;4.78;1.65;;;;;;;;;;707156;27;820;-64
2023/10/29 00:12:45;;;;;;;3.50;1.60;;;;;;;;;;700727;28;1544;-64
2023/10/29 00:13:06;;;;;;;3.58;1.63;;;;;;;;;;702847;28;4321;-64
2023/10/29 00:13:26;;;;;;;2.95;1.50;;;;;;;;;;704206;28;852;-64
2023/10/29 00:13:47;;;;;;;2.90;1.50;;;;;;;;;;699252;28;2333;-64
2023/10/29 00:14:07;;;;;;;3.93;1.63;;;;;;;;;;701938;28;832;-65
2023/10/29 00:14:27;;;;;;;4.38;1.67;;;;;;;;;;699295;28;1511;-64
2023/10/29 00:14:48;;;;;;;4.20;1.60;;;;;;;;;;697271;28;1782;-64
2023/10/29 00:15:08;;;;;;;3.37;1.57;;;;;;;;;;699079;28;915;-64
2023/10/29 00:15:29;;;;;;;3.05;1.50;;;;;;;;;;698242;28;1520;-63
2023/10/29 00:15:49;;;;;;;4.20;1.70;;;;;;;;;;698444;28;2470;-64
2023/10/29 00:16:11;;;;;;;3.87;1.60;;;;;;;;;;700854;28;4221;-64
2023/10/29 00:16:31;;;;;;;3.67;1.55;;;;;;;;;;703488;28;3705;-64
2023/10/29 00:16:51;;;;;;;3.47;1.65;;;;;;;;;;702161;28;1736;-63
2023/10/29 00:17:12;;;;;;;3.67;1.60;;;;;;;;;;703878;28;1948;-64
2023/10/29 00:17:32;;;;;;;4.82;1.52;;;;;;;;;;701426;28;780;-61
2023/10/29 00:17:52;;;;;;;3.73;1.53;;;;;;;;;;699883;28;1752;-61
2023/10/29 00:18:13;;;;;;;3.63;1.60;;;;;;;;;;701356;28;853;-62
2023/10/29 00:18:33;;;;;;;4.03;1.50;;;;;;;;;;699615;28;800;-64
2023/10/29 00:18:53;;;;;;;3.70;1.50;;;;;;;;;;698277;28;4683;-63
2023/10/29 00:19:13;;;;;;;4.40;1.70;;;;;;;;;;698290;28;867;-62
2023/10/29 00:19:34;;;;;;;3.88;1.48;;;;;;;;;;699518;28;1750;-63
2023/10/29 00:19:55;;;;;;;4.53;1.70;;;;;;;;;;696769;28;907;-66
2023/10/29 00:20:15;;;;;;;3.50;1.50;;;;;;;;;;699804;28;994;-65
2023/10/29 00:20:36;;;;;;;3.50;1.60;;;;;;;;;;698014;28;2084;-62
2023/10/29 00:20:56;;;;;;;2.73;1.40;;;;;;;;;;698939;28;785;-62
2023/10/29 00:21:16;;;;;;;3.83;1.50;;;;;;;;;;698434;28;777;-62
2023/10/29 00:21:37;;;;;;;5.20;1.70;;;;;;;;;;697320;28;1454;-62
2023/10/29 00:21:58;;;;;;;3.95;1.50;;;;;;;;;;701033;28;4727;-61
2023/10/29 00:22:18;;;;;;;3.50;1.50;;;;;;;;;;699645;28;1232;-63
2023/10/29 00:22:38;;;;;;;4.00;1.50;;;;;;;;;;701282;28;2394;-63
2023/10/29 00:22:58;;;;;;;4.77;1.67;;;;;;;;;;698754;28;825;-63
2023/10/29 00:23:19;;;;;;;4.10;1.80;;;;;;;;;;698697;28;1182;-63
2023/10/29 00:23:39;;;;;;;3.90;1.50;;;;;;;;;;694581;28;1082;-63
2023/10/29 00:23:59;;;;;;;3.30;1.50;;;;;;;;;;695630;28;1346;-64
2023/10/29 00:24:22;;;;;;;3.50;1.40;;;;;;;;;;698764;28;813;-63
2023/10/29 00:24:42;;;;;;;3.13;1.60;;;;;;;;;;697715;28;1867;-63
2023/10/29 00:25:02;;;;;;;3.43;1.67;;;;;;;;;;699784;28;4217;-63
2023/10/29 00:25:23;;;;;;;3.93;1.70;;;;;;;;;;700270;28;932;-65
2023/10/29 00:25:43;;;;;;;4.55;1.77;;;;;;;;;;702981;28;1381;-62
2023/10/29 00:26:04;;;;;;;4.57;1.70;;;;;;;;;;704141;28;1404;-64
2023/10/29 00:26:24;;;;;;;5.32;2.13;;;;;;;;;;705348;27;846;-63
2023/10/29 00:26:45;;;;;;;5.07;2.17;;;;;;;;;;701446;28;1017;-64
2023/10/29 00:27:05;;;;;;;3.77;1.50;;;;;;;;;;702666;28;796;-63
2023/10/29 00:27:26;;;;;;;3.97;1.80;;;;;;;;;;700023;28;1310;-64
2023/10/29 00:27:46;;;;;;;3.40;1.63;;;;;;;;;;698528;28;1827;-63
2023/10/29 00:28:07;;;;;;;4.00;1.60;;;;;;;;;;699096;28;4223;-64
2023/10/29 00:28:28;;;;;;;4.50;1.55;;;;;;;;;;699275;28;927;-65
2023/10/29 00:28:48;;;;;;;4.60;1.53;;;;;;;;;;702011;28;2201;-63
2023/10/29 00:29:08;;;;;;;3.33;1.47;;;;;;;;;;701562;28;1388;-63
2023/10/29 00:29:28;;;;;;;4.68;1.60;;;;;;;;;;701676;28;859;-64
2023/10/29 00:29:49;;;;;;;4.73;1.90;;;;;;;;;;697775;28;1517;-63
2023/10/29 00:30:09;;;;;;;3.83;1.53;;;;;;;;;;699088;28;884;-60
2023/10/29 00:30:30;;;;;;;3.63;1.60;;;;;;;;;;698712;28;904;-63
2023/10/29 00:30:50;;;;;;;3.50;1.63;;;;;;;;;;696312;28;1752;-63
2023/10/29 00:31:10;;;;;;;4.68;1.73;;;;;;;;;;698882;28;4272;-61
2023/10/29 00:31:32;;;;;;;3.87;1.53;;;;;;;;;;698942;28;784;-63
2023/10/29 00:31:52;;;;;;;3.75;1.70;;;;;;;;;;700078;28;1929;-63
2023/10/29 00:32:13;;;;;;;3.60;1.50;;;;;;;;;;700216;28;920;-63
2023/10/29 00:32:33;;;;;;;3.95;1.50;;;;;;;;;;702736;27;1755;-64
2023/10/29 00:32:54;;;;;;;4.40;1.63;;;;;;;;;;700040;28;1720;-64
2023/10/29 00:33:14;;;;;;;3.60;1.60;;;;;;;;;;700368;28;1161;-62
2023/10/29 00:33:35;;;;;;;3.03;1.60;;;;;;;;;;695355;28;1720;-63
2023/10/29 00:33:56;;;;;;;3.17;1.70;;;;;;;;;;697281;28;4496;-63
2023/10/29 00:34:16;;;;;;;2.63;1.52;;;;;;;;;;697812;28;1436;-61
2023/10/29 00:34:36;;;;;;;4.17;1.63;;;;;;;;;;692531;28;2476;-65
2023/10/29 00:34:57;;;;;;;4.82;1.60;;;;;;;;;;698646;28;1404;-64
2023/10/29 00:35:17;;;;;;;4.50;1.80;;;;;;;;;;698448;28;2541;-63
2023/10/29 00:35:37;;;;;;;4.53;1.70;;;;;;;;;;698026;28;2424;-64
2023/10/29 00:35:58;;;;;;;5.63;1.60;;;;;;;;;;699711;28;1628;-64
2023/10/29 00:36:18;;;;;;;5.80;1.63;;;;;;;;;;698825;28;1132;-64
2023/10/29 00:36:38;;;;;;;4.70;1.47;;;;;;;;;;694842;28;1706;-63
2023/10/29 00:36:59;;;;;;;3.15;1.60;;;;;;;;;;698962;28;4355;-63
2023/10/29 00:37:19;;;;;;;3.43;1.60;;;;;;;;;;696866;28;1977;-64
2023/10/29 00:37:39;;;;;;;3.63;1.50;;;;;;;;;;694193;28;1884;-64
2023/10/29 00:38:00;;;;;;;3.13;1.58;;;;;;;;;;694081;28;873;-64
2023/10/29 00:38:20;;;;;;;3.40;1.60;;;;;;;;;;697673;28;946;-64
2023/10/29 00:38:41;;;;;;;3.50;1.57;;;;;;;;;;699467;28;1731;-63
2023/10/29 00:39:02;;;;;;;2.97;1.40;;;;;;;;;;697805;28;5846;-64
2023/10/29 00:39:22;;;;;;;4.50;1.60;;;;;;;;;;700366;28;966;-64
2023/10/29 00:39:43;;;;;;;4.43;1.70;;;;;;;;;;698447;28;1720;-64
2023/10/29 00:40:04;;;;;;;3.80;1.67;;;;;;;;;;699744;28;4367;-65
2023/10/29 00:40:25;;;;;;;3.80;1.48;;;;;;;;;;699260;28;890;-64
2023/10/29 00:40:45;;;;;;;3.33;1.50;;;;;;;;;;700033;28;2638;-64
2023/10/29 00:41:05;;;;;;;3.03;1.40;;;;;;;;;;702235;28;1476;-64
2023/10/29 00:41:26;;;;;;;3.37;1.50;;;;;;;;;;700541;28;1561;-64
2023/10/29 00:41:46;;;;;;;4.57;1.70;;;;;;;;;;697199;28;2231;-64
2023/10/29 00:42:07;;;;;;;3.23;1.50;;;;;;;;;;698162;28;931;-62
2023/10/29 00:42:27;;;;;;;3.10;1.60;;;;;;;;;;698672;28;952;-64
2023/10/29 00:42:47;;;;;;;3.53;1.57;;;;;;;;;;701012;28;1932;-64
2023/10/29 00:43:12;;;;;;;3.47;1.50;;;;;;;;;;702084;28;4303;-63
2023/10/29 00:43:41;;;;;;;3.85;1.60;;;;;;;;;;703686;28;967;-63
2023/10/29 00:44:01;;;;;;;3.13;1.50;;;;;;;;;;705881;27;959;-64
2023/10/29 00:44:22;;;;;;;2.50;1.40;;;;;;;;;;705676;27;1286;-64
2023/10/29 00:44:42;;;;;;;2.60;1.40;;;;;;;;;;701213;28;1550;-64
2023/10/29 00:45:03;;;;;;;2.83;1.40;;;;;;;;;;700259;28;1280;-64
2023/10/29 00:45:23;;;;;;;3.97;1.50;;;;;;;;;;699135;28;1057;-64
2023/10/29 00:45:46;;;;;;;3.87;1.50;;;;;;;;;;699880;28;1687;-64
2023/10/29 00:46:07;;;;;;;2.40;1.40;;;;;;;;;;700024;28;4348;-64
2023/10/29 00:46:28;;;;;;;3.00;1.33;;;;;;;;;;699330;28;809;-63
2023/10/29 00:46:49;;;;;;;3.88;1.60;;;;;;;;;;697628;28;1692;-64
2023/10/29 00:47:12;;;;;;;3.03;1.50;;;;;;;;;;701420;28;790;-61
2023/10/29 00:47:33;;;;;;;3.67;1.60;;;;;;;;;;701815;28;1038;-63
2023/10/29 00:47:53;;;;;;;3.75;1.50;;;;;;;;;;701124;28;1777;-62
2023/10/29 00:48:14;;;;;;;4.27;1.50;;;;;;;;;;703502;28;1385;-62
2023/10/29 00:48:34;;;;;;;4.05;1.48;;;;;;;;;;704366;28;796;-63
2023/10/29 00:48:55;;;;;;;3.60;1.47;;;;;;;;;;701366;28;5235;-62
2023/10/29 00:49:15;;;;;;;3.03;1.50;;;;;;;;;;703212;28;789;-62
2023/10/29 00:49:36;;;;;;;3.43;1.70;;;;;;;;;;699580;28;1449;-62
2023/10/29 00:49:56;;;;;;;3.40;1.50;;;;;;;;;;698485;28;1357;-63
2023/10/29 00:50:16;;;;;;;4.40;1.33;;;;;;;;;;698544;28;876;-61
2023/10/29 00:50:37;;;;;;;4.78;1.50;;;;;;;;;;694224;28;2561;-62
2023/10/29 00:50:57;;;;;;;4.07;1.50;;;;;;;;;;692909;28;935;-62
2023/10/29 00:51:18;;;;;;;3.22;1.30;;;;;;;;;;692882;28;1224;-62
2023/10/29 00:51:39;;;;;;;3.83;1.40;;;;;;;;;;695189;28;1499;-62
2023/10/29 00:51:59;;;;;;;4.40;1.60;;;;;;;;;;699207;28;4324;-63
2023/10/29 00:52:21;;;;;;;4.77;1.70;;;;;;;;;;701537;28;797;-64
2023/10/29 00:52:41;;;;;;;4.20;1.58;;;;;;;;;;698345;28;1577;-64
2023/10/29 00:53:01;;;;;;;3.27;1.50;;;;;;;;;;700544;28;1246;-62
2023/10/29 00:53:22;;;;;;;2.75;1.35;;;;;;;;;;700790;28;845;-61
2023/10/29 00:53:42;;;;;;;2.43;1.27;;;;;;;;;;701653;28;1823;-62
2023/10/29 00:54:03;;;;;;;3.65;1.45;;;;;;;;;;702669;28;946;-64
2023/10/29 00:54:23;;;;;;;3.90;1.50;;;;;;;;;;699797;28;1219;-63
2023/10/29 00:54:44;;;;;;;4.40;1.60;;;;;;;;;;701928;28;1793;-63
2023/10/29 00:55:04;;;;;;;3.67;1.60;;;;;;;;;;700095;28;4296;-63
2023/10/29 00:55:25;;;;;;;3.27;1.50;;;;;;;;;;698729;28;1193;-63
2023/10/29 00:55:45;;;;;;;3.33;1.50;;;;;;;;;;692278;28;1702;-63
2023/10/29 00:56:08;;;;;;;4.25;1.60;;;;;;;;;;694608;28;1370;-62
2023/10/29 00:56:29;;;;;;;3.00;1.45;;;;;;;;;;697202;28;832;-63
2023/10/29 00:56:49;;;;;;;3.35;1.45;;;;;;;;;;694201;28;1552;-62
2023/10/29 00:57:10;;;;;;;2.97;1.40;;;;;;;;;;696113;28;1909;-63
2023/10/29 00:57:31;;;;;;;4.07;1.50;;;;;;;;;;699313;28;959;-63
2023/10/29 00:57:51;;;;;;;4.07;1.50;;;;;;;;;;698891;28;4467;-63
2023/10/29 00:58:11;;;;;;;3.10;1.60;;;;;;;;;;701570;28;990;-63
2023/10/29 00:58:32;;;;;;;3.17;1.60;;;;;;;;;;701500;28;1113;-61
2023/10/29 00:58:53;;;;;;;3.08;1.58;;;;;;;;;;697222;28;1989;-60
2023/10/29 00:59:14;;;;;;;5.27;1.70;;;;;;;;;;703080;28;896;-63
2023/10/29 00:59:34;;;;;;;4.25;2.15;;;;;;;;;;702544;28;824;-63
2023/10/29 00:59:55;;;;;;;4.50;2.10;;;;;;;;;;701404;28;977;-63
2023/10/29 01:00:18;;;;;;;2.93;1.30;;;;;;;;;;702717;28;1352;-63
2023/10/29 01:00:38;;;;;;;3.42;1.30;;;;;;;;;;698774;28;1632;-62
2023/10/29 01:00:58;;;;;;;3.05;1.30;;;;;;;;;;700359;28;1215;-61
2023/10/29 01:01:19;;;;;;;2.87;1.40;;;;;;;;;;699553;28;900;-63
2023/10/29 01:01:40;;;;;;;3.45;1.60;;;;;;;;;;699712;28;1472;-63
2023/10/29 01:02:01;;;;;;;3.57;1.60;;;;;;;;;;698446;28;1297;-62
2023/10/29 01:02:21;;;;;;;3.45;1.52;;;;;;;;;;696673;28;1026;-62
2023/10/29 01:02:42;;;;;;;4.73;1.60;;;;;;;;;;700246;28;2368;-62
2023/10/29 01:03:02;;;;;;;6.20;1.50;;;;;;;;;;698266;28;1095;-62
2023/10/29 01:03:23;;;;;;;3.97;1.37;;;;;;;;;;698121;28;1317;-62
2023/10/29 01:03:43;;;;;;;3.13;1.30;;;;;;;;;;697348;28;2676;-63
2023/10/29 01:04:04;;;;;;;3.75;1.45;;;;;;;;;;698985;28;1253;-62
2023/10/29 01:04:25;;;;;;;3.75;1.52;;;;;;;;;;701424;28;846;-62
2023/10/29 01:04:46;;;;;;;2.97;1.47;;;;;;;;;;701979;28;2459;-62
2023/10/29 01:05:06;;;;;;;3.83;1.52;;;;;;;;;;703527;28;994;-62
2023/10/29 01:05:26;;;;;;;3.40;1.60;;;;;;;;;;703585;28;757;-63
2023/10/29 01:05:47;;;;;;;3.50;1.40;;;;;;;;;;702147;28;1076;-62
2023/10/29 01:06:08;;;;;;;3.20;1.50;;;;;;;;;;703421;28;1705;-62
2023/10/29 01:06:28;;;;;;;4.15;1.50;;;;;;;;;;704131;28;1447;-62
2023/10/29 01:06:49;;;;;;;4.67;1.60;;;;;;;;;;701509;28;2075;-62
2023/10/29 01:07:09;;;;;;;5.22;1.40;;;;;;;;;;700833;28;1151;-61
2023/10/29 01:07:29;;;;;;;6.03;1.60;;;;;;;;;;701135;28;907;-62
2023/10/29 01:07:51;;;;;;;3.78;1.48;;;;;;;;;;700150;28;2196;-62
2023/10/29 01:08:12;;;;;;;2.97;1.30;;;;;;;;;;700976;28;1412;-61
2023/10/29 01:08:32;;;;;;;3.07;1.43;;;;;;;;;;699524;28;2218;-62
2023/10/29 01:08:54;;;;;;;3.97;1.50;;;;;;;;;;699391;28;1516;-62
2023/10/29 01:09:14;;;;;;;4.63;1.40;;;;;;;;;;703362;28;871;-62
2023/10/29 01:09:35;;;;;;;3.35;1.40;;;;;;;;;;703279;28;1197;-62
2023/10/29 01:09:58;;;;;;;3.27;1.40;;;;;;;;;;697674;28;1036;-62
2023/10/29 01:10:19;;;;;;;3.70;1.40;;;;;;;;;;700649;28;1273;-61
2023/10/29 01:10:39;;;;;;;3.27;1.30;;;;;;;;;;696913;28;1768;-60
2023/10/29 01:10:59;;;;;;;3.53;1.40;;;;;;;;;;698678;28;873;-62
2023/10/29 01:11:20;;;;;;;4.07;1.53;;;;;;;;;;695449;28;1239;-59
2023/10/29 01:11:40;;;;;;;3.55;1.42;;;;;;;;;;694159;28;1857;-61
2023/10/29 01:12:00;;;;;;;3.70;1.40;;;;;;;;;;696365;28;1477;-61
2023/10/29 01:12:21;;;;;;;2.97;1.40;;;;;;;;;;696259;28;1633;-61
2023/10/29 01:12:43;;;;;;;3.63;1.42;;;;;;;;;;692692;28;3229;-61
2023/10/29 01:13:03;;;;;;;4.45;1.80;;;;;;;;;;692609;28;2056;-61
2023/10/29 01:13:24;;;;;;;3.10;1.30;;;;;;;;;;692316;28;1230;-61
2023/10/29 01:13:44;;;;;;;3.75;1.40;;;;;;;;;;688196;28;1660;-61
2023/10/29 01:14:04;;;;;;;4.23;1.40;;;;;;;;;;693115;28;730;-60
2023/10/29 01:14:24;;;;;;;3.87;1.40;;;;;;;;;;695992;28;1298;-61
2023/10/29 01:14:46;;;;;;;4.90;1.50;;;;;;;;;;697001;28;2616;-61
2023/10/29 01:15:06;;;;;;;3.67;1.40;;;;;;;;;;700756;28;916;-61
2023/10/29 01:15:27;;;;;;;4.57;1.50;;;;;;;;;;703881;27;1054;-61
2023/10/29 01:15:47;;;;;;;3.93;1.60;;;;;;;;;;701351;28;1748;-62
2023/10/29 01:16:07;;;;;;;2.67;1.47;;;;;;;;;;703133;28;1336;-61
2023/10/29 01:16:28;;;;;;;2.33;1.40;;;;;;;;;;699604;28;951;-62
2023/10/29 01:16:48;;;;;;;2.77;1.20;;;;;;;;;;698974;28;1136;-62
2023/10/29 01:17:09;;;;;;;3.45;1.40;;;;;;;;;;697863;28;1986;-62
2023/10/29 01:17:29;;;;;;;3.47;1.50;;;;;;;;;;696859;28;864;-62
2023/10/29 01:17:49;;;;;;;3.03;1.30;;;;;;;;;;698445;28;2124;-61
2023/10/29 01:18:09;;;;;;;3.75;1.50;;;;;;;;;;699052;28;837;-62
2023/10/29 01:18:31;;;;;;;3.87;1.60;;;;;;;;;;702043;28;908;-61
2023/10/29 01:18:51;;;;;;;2.78;1.42;;;;;;;;;;698977;28;2018;-61
2023/10/29 01:19:11;;;;;;;3.08;1.30;;;;;;;;;;699609;28;773;-60
2023/10/29 01:19:31;;;;;;;2.97;1.47;;;;;;;;;;696719;28;1315;-61
2023/10/29 01:19:52;;;;;;;3.17;1.40;;;;;;;;;;695448;28;2394;-61
2023/10/29 01:20:12;;;;;;;3.38;1.30;;;;;;;;;;698611;28;906;-60
2023/10/29 01:20:32;;;;;;;4.37;1.37;;;;;;;;;;699133;28;1204;-60
2023/10/29 01:20:53;;;;;;;4.90;1.53;;;;;;;;;;701718;28;1800;-60
2023/10/29 01:21:13;;;;;;;2.70;1.40;;;;;;;;;;703739;28;1459;-60
2023/10/29 01:21:33;;;;;;;3.27;1.30;;;;;;;;;;704943;28;927;-60
2023/10/29 01:21:54;;;;;;;3.37;1.30;;;;;;;;;;705539;27;2700;-60
2023/10/29 01:22:14;;;;;;;2.92;1.30;;;;;;;;;;702415;28;1121;-61
2023/10/29 01:22:34;;;;;;;3.80;1.30;;;;;;;;;;700197;28;1287;-61
2023/10/29 01:22:55;;;;;;;3.23;1.40;;;;;;;;;;698870;28;1763;-61
2023/10/29 01:23:15;;;;;;;4.63;1.40;;;;;;;;;;700930;28;1253;-60
2023/10/29 01:23:36;;;;;;;4.13;1.40;;;;;;;;;;699410;28;816;-61
2023/10/29 01:23:56;;;;;;;4.07;1.40;;;;;;;;;;697598;28;2615;-62
2023/10/29 01:24:16;;;;;;;3.50;1.40;;;;;;;;;;699051;28;856;-63
2023/10/29 01:24:38;;;;;;;3.28;1.40;;;;;;;;;;697312;28;1373;-61
2023/10/29 01:24:58;;;;;;;2.40;1.23;;;;;;;;;;697124;28;856;-61
2023/10/29 01:25:19;;;;;;;3.38;1.42;;;;;;;;;;696163;28;939;-59
2023/10/29 01:25:39;;;;;;;3.60;1.50;;;;;;;;;;692194;28;2042;-61
2023/10/29 01:25:59;;;;;;;4.83;1.40;;;;;;;;;;696015;28;1323;-60
2023/10/29 01:26:20;;;;;;;3.78;1.30;;;;;;;;;;694883;28;936;-62
2023/10/29 01:26:40;;;;;;;3.23;1.30;;;;;;;;;;695271;28;2159;-61
2023/10/29 01:27:03;;;;;;;3.15;1.50;;;;;;;;;;698209;28;1358;-61
2023/10/29 01:27:23;;;;;;;4.35;1.50;;;;;;;;;;698464;28;1412;-61
2023/10/29 01:27:44;;;;;;;4.77;1.53;;;;;;;;;;700283;28;2266;-60
2023/10/29 01:28:05;;;;;;;3.65;1.50;;;;;;;;;;699281;28;792;-60
2023/10/29 01:28:25;;;;;;;3.83;1.50;;;;;;;;;;701338;28;796;-61
2023/10/29 01:28:45;;;;;;;3.03;1.48;;;;;;;;;;701060;28;1226;-61
2023/10/29 01:29:06;;;;;;;4.13;1.47;;;;;;;;;;701403;28;1479;-60
2023/10/29 01:29:26;;;;;;;4.30;1.40;;;;;;;;;;700933;28;784;-61
2023/10/29 01:29:46;;;;;;;3.13;1.50;;;;;;;;;;699935;28;1065;-61
2023/10/29 01:30:07;;;;;;;2.57;1.50;;;;;;;;;;703457;28;896;-60
2023/10/29 01:30:27;;;;;;;3.58;1.40;;;;;;;;;;702548;28;958;-62
2023/10/29 01:30:47;;;;;;;3.37;1.50;;;;;;;;;;700660;28;1479;-60
2023/10/29 01:31:08;;;;;;;3.23;1.30;;;;;;;;;;706720;27;940;-61
2023/10/29 01:31:28;;;;;;;3.47;1.27;;;;;;;;;;705313;27;2866;-61
2023/10/29 01:31:49;;;;;;;4.30;1.30;;;;;;;;;;704534;27;2185;-61
2023/10/29 01:32:09;;;;;;;4.40;1.50;;;;;;;;;;703196;28;836;-62
2023/10/29 01:32:30;;;;;;;3.97;1.50;;;;;;;;;;700591;28;1130;-61
2023/10/29 01:32:50;;;;;;;3.67;1.30;;;;;;;;;;701986;28;1041;-61
2023/10/29 01:33:10;;;;;;;4.53;1.40;;;;;;;;;;700672;28;1211;-60
2023/10/29 01:33:30;;;;;;;4.25;1.40;;;;;;;;;;698453;28;762;-61
2023/10/29 01:33:51;;;;;;;4.47;1.50;;;;;;;;;;699482;28;2283;-61
2023/10/29 01:34:11;;;;;;;4.50;1.40;;;;;;;;;;702577;28;1448;-62
2023/10/29 01:34:31;;;;;;;3.70;1.40;;;;;;;;;;701745;28;800;-60
2023/10/29 01:34:52;;;;;;;3.78;1.38;;;;;;;;;;701318;28;1853;-60
2023/10/29 01:35:12;;;;;;;3.03;1.33;;;;;;;;;;702576;28;1298;-60
2023/10/29 01:35:32;;;;;;;4.03;1.50;;;;;;;;;;702975;28;1237;-60
2023/10/29 01:35:53;;;;;;;3.80;1.40;;;;;;;;;;699250;28;1710;-59
2023/10/29 01:36:13;;;;;;;3.33;1.40;;;;;;;;;;700156;28;863;-59
2023/10/29 01:36:33;;;;;;;3.45;1.30;;;;;;;;;;700522;28;1473;-60
2023/10/29 01:36:53;;;;;;;3.20;1.40;;;;;;;;;;698690;28;2281;-60
2023/10/29 01:37:14;;;;;;;3.87;1.20;;;;;;;;;;703149;28;1909;-61
2023/10/29 01:37:34;;;;;;;3.07;1.37;;;;;;;;;;704145;27;1199;-61
2023/10/29 01:37:54;;;;;;;2.55;1.30;;;;;;;;;;703635;28;2164;-61
2023/10/29 01:38:15;;;;;;;4.00;1.40;;;;;;;;;;705300;27;878;-63
2023/10/29 01:38:35;;;;;;;3.60;1.98;;;;;;;;;;703555;28;935;-61
2023/10/29 01:38:55;;;;;;;4.13;1.90;;;;;;;;;;698728;28;5274;-61
2023/10/29 01:39:15;;;;;;;3.37;1.20;;;;;;;;;;699976;28;1231;-61
2023/10/29 01:39:36;;;;;;;3.80;1.30;;;;;;;;;;699636;28;796;-61
2023/10/29 01:39:56;;;;;;;3.90;1.43;;;;;;;;;;699396;28;2329;-60
2023/10/29 01:40:17;;;;;;;3.65;1.65;;;;;;;;;;696391;28;1352;-60
2023/10/29 01:40:37;;;;;;;3.30;1.40;;;;;;;;;;700351;28;1451;-60
2023/10/29 01:40:57;;;;;;;3.23;1.40;;;;;;;;;;698180;28;2393;-60
2023/10/29 01:41:18;;;;;;;4.28;1.35;;;;;;;;;;697726;28;1516;-60
2023/10/29 01:41:38;;;;;;;3.70;1.20;;;;;;;;;;695105;28;1389;-61
2023/10/29 01:41:58;;;;;;;3.13;1.40;;;;;;;;;;693180;28;1655;-61
2023/10/29 01:42:18;;;;;;;2.97;1.50;;;;;;;;;;697660;28;940;-61
2023/10/29 01:42:39;;;;;;;3.37;1.50;;;;;;;;;;697662;28;1448;-61
2023/10/29 01:42:59;;;;;;;3.60;1.60;;;;;;;;;;699529;28;829;-61
2023/10/29 01:43:19;;;;;;;3.13;1.50;;;;;;;;;;700544;28;875;-61
2023/10/29 01:43:39;;;;;;;2.90;1.40;;;;;;;;;;699612;28;1785;-60
2023/10/29 01:44:01;;;;;;;3.90;1.50;;;;;;;;;;699004;28;1025;-61
2023/10/29 01:44:21;;;;;;;3.67;1.30;;;;;;;;;;696729;28;1218;-62
2023/10/29 01:44:41;;;;;;;3.00;1.30;;;;;;;;;;695342;28;2011;-61
2023/10/29 01:45:04;;;;;;;2.30;1.20;;;;;;;;;;693978;28;1147;-60
2023/10/29 01:45:24;;;;;;;1.83;1.17;;;;;;;;;;698440;28;1376;-61
2023/10/29 01:45:44;;;;;;;3.10;1.20;;;;;;;;;;696095;28;2167;-62
2023/10/29 01:46:05;;;;;;;3.80;1.40;;;;;;;;;;697745;28;1448;-62
2023/10/29 01:46:25;;;;;;;3.00;1.30;;;;;;;;;;698098;28;987;-61
2023/10/29 01:46:45;;;;;;;2.53;1.30;;;;;;;;;;693947;28;1740;-62
2023/10/29 01:47:06;;;;;;;2.83;1.40;;;;;;;;;;695596;28;1179;-60
2023/10/29 01:47:27;;;;;;;3.63;1.60;;;;;;;;;;695422;28;1213;-61
2023/10/29 01:47:47;;;;;;;3.13;1.60;;;;;;;;;;697246;28;1905;-62
2023/10/29 01:48:07;;;;;;;3.90;1.27;;;;;;;;;;698683;28;903;-59
2023/10/29 01:48:28;;;;;;;3.15;1.27;;;;;;;;;;698069;28;1328;-60
2023/10/29 01:48:48;;;;;;;5.53;1.73;;;;;;;;;;696818;28;908;-60
2023/10/29 01:49:09;;;;;;;4.97;1.40;;;;;;;;;;701232;28;937;-60
2023/10/29 01:49:29;;;;;;;3.95;1.30;;;;;;;;;;703818;28;1021;-60
2023/10/29 01:49:50;;;;;;;3.35;1.38;;;;;;;;;;701392;28;1340;-60
2023/10/29 01:50:10;;;;;;;3.13;1.57;;;;;;;;;;698105;28;1243;-60
2023/10/29 01:50:30;;;;;;;4.37;1.50;;;;;;;;;;700484;28;899;-61
2023/10/29 01:50:50;;;;;;;4.88;1.50;;;;;;;;;;697347;28;1459;-59
2023/10/29 01:51:11;;;;;;;3.77;1.40;;;;;;;;;;698357;28;1125;-60
2023/10/29 01:51:31;;;;;;;4.83;1.40;;;;;;;;;;694931;28;845;-59
2023/10/29 01:51:51;;;;;;;3.07;1.50;;;;;;;;;;694408;28;1726;-59
2023/10/29 01:52:11;;;;;;;3.65;1.30;;;;;;;;;;697947;28;952;-59
2023/10/29 01:52:32;;;;;;;4.80;1.40;;;;;;;;;;698451;28;823;-60
2023/10/29 01:52:54;;;;;;;3.20;1.40;;;;;;;;;;699228;28;1670;-59
2023/10/29 01:53:14;;;;;;;2.97;1.30;;;;;;;;;;701236;28;1258;-60
2023/10/29 01:53:34;;;;;;;2.50;1.27;;;;;;;;;;702906;28;985;-60
2023/10/29 01:53:54;;;;;;;2.33;1.20;;;;;;;;;;705044;27;1674;-60
2023/10/29 01:54:15;;;;;;;2.93;1.27;;;;;;;;;;703402;28;1524;-59
2023/10/29 01:54:36;;;;;;;3.63;1.40;;;;;;;;;;703108;28;1312;-59
2023/10/29 01:54:57;;;;;;;3.50;1.23;;;;;;;;;;701003;28;1967;-58
2023/10/29 01:55:17;;;;;;;2.53;1.20;;;;;;;;;;702761;28;927;-59
2023/10/29 01:55:38;;;;;;;2.70;1.20;;;;;;;;;;701180;28;862;-60
2023/10/29 01:55:58;;;;;;;4.07;1.40;;;;;;;;;;699754;28;1842;-60
2023/10/29 01:56:18;;;;;;;3.63;1.40;;;;;;;;;;700643;28;1602;-60
2023/10/29 01:56:38;;;;;;;4.37;1.40;;;;;;;;;;698064;28;1449;-58
2023/10/29 01:56:59;;;;;;;4.10;1.30;;;;;;;;;;697032;28;1667;-60
2023/10/29 01:57:19;;;;;;;4.03;1.40;;;;;;;;;;692849;28;1918;-60
2023/10/29 01:57:39;;;;;;;3.57;1.40;;;;;;;;;;692657;28;772;-60
2023/10/29 01:57:59;;;;;;;3.60;1.48;;;;;;;;;;691608;28;1969;-60
2023/10/29 01:58:20;;;;;;;4.00;1.60;;;;;;;;;;695384;28;1254;-60
2023/10/29 01:58:40;;;;;;;2.23;1.27;;;;;;;;;;693811;28;1827;-61
2023/10/29 01:59:00;;;;;;;2.67;1.20;;;;;;;;;;695139;28;818;-60
2023/10/29 01:59:21;;;;;;;3.13;1.30;;;;;;;;;;695234;28;828;-62
2023/10/29 01:59:41;;;;;;;3.73;1.20;;;;;;;;;;690771;28;1208;-59
2023/10/29 02:00:05;;;;;;;3.13;1.20;;;;;;;;;;690026;28;1364;-59
2023/10/29 02:00:32;;;;;;;3.10;1.20;;;;;;;;;;696982;28;749;-60
2023/10/29 02:00:55;;;;;;;2.57;1.30;;;;;;;;;;696770;28;4432;-62
2023/10/29 02:01:16;;;;;;;6.60;1.63;;;;;;;;;;700839;28;1230;-60
2023/10/29 02:01:37;;;;;;;5.50;1.35;;;;;;;;;;701378;28;794;-61
2023/10/29 02:01:57;;;;;;;2.93;1.30;;;;;;;;;;699652;28;2327;-61
2023/10/29 02:02:18;;;;;;;2.77;1.40;;;;;;;;;;701347;28;1605;-60
2023/10/29 02:02:38;;;;;;;3.37;1.40;;;;;;;;;;698291;28;1119;-61
2023/10/29 02:02:58;;;;;;;3.33;1.30;;;;;;;;;;696950;28;2351;-61
2023/10/29 02:03:19;;;;;;;2.72;1.33;;;;;;;;;;698568;28;1648;-60
2023/10/29 02:03:39;;;;;;;2.73;1.30;;;;;;;;;;698533;28;995;-60
2023/10/29 02:04:00;;;;;;;2.83;1.40;;;;;;;;;;700267;28;4647;-59
2023/10/29 02:04:26;;;;;;;2.95;1.30;;;;;;;;;;701153;28;1281;-60
2023/10/29 02:04:47;;;;;;;3.35;1.40;;;;;;;;;;700994;28;2421;-57
2023/10/29 02:05:07;;;;;;;2.70;1.30;;;;;;;;;;700963;28;1495;-58
2023/10/29 02:05:27;;;;;;;3.35;1.30;;;;;;;;;;700800;28;935;-60
2023/10/29 02:05:49;;;;;;;4.07;1.40;;;;;;;;;;699759;28;2334;-60
2023/10/29 02:06:19;;;;;;;3.43;1.30;;;;;;;;;;698801;28;1431;-59
2023/10/29 02:06:40;;;;;;;3.92;1.40;;;;;;;;;;699181;28;820;-59
2023/10/29 02:07:00;;;;;;;3.80;1.40;;;;;;;;;;699905;28;4348;-59
2023/10/29 02:07:20;;;;;;;2.90;1.40;;;;;;;;;;699962;28;852;-62
2023/10/29 02:07:41;;;;;;;3.60;1.30;;;;;;;;;;697663;28;1235;-60
2023/10/29 02:08:01;;;;;;;4.20;1.30;;;;;;;;;;695067;28;1351;-59